WetterOnline ( http://www.wetteronline.ch )

Wetter aktuell Regensburg

Aktuelles Wetter: Regensburg/Oberhub (371m)

6-stündlich | Neueste Meldungen
Ortszeit Temperatur Wetter
Mi, 20.02. 13:00 2.5° C bedeckt
Mi, 20.02. 7:00 -1.9° C Nebel
Mi, 20.02. 1:00 0.1° C wolkenlos
Di, 19.02. 19:00 7.1° C Regen
Di, 19.02. 13:00 8.4° C wolkig
Di, 19.02. 7:00 -1.8° C wolkenlos
Di, 19.02. 1:00 -1.8° C wolkenlos
Mo, 18.02. 19:00 4.4° C wolkenlos
Ortszeit Temperatur Wetter
Mi, 20.02. 14:30 7.4° C -
Mi, 20.02. 14:20 7.4° C -
Mi, 20.02. 14:10 6.9° C -
Mi, 20.02. 14:00 6.2° C bewölkt
Mi, 20.02. 13:50 6.2° C bewölkt
Mi, 20.02. 13:40 5.5° C bewölkt
Mi, 20.02. 13:30 3.9° C wolkig
Mi, 20.02. 13:00 2.5° C bedeckt
Mi, 20.02. 12:30 1.9° C Nebel
Mi, 20.02. 12:00 1.9° C bedeckt
Mi, 20.02. 11:30 1.2° C Nebel
Ortszeit Relative Feuchte Sichtweite
Mi, 20.02. 13:00 92% 3.9 km
Mi, 20.02. 7:00 98% 100 m
Mi, 20.02. 1:00 96% 7 km
Di, 19.02. 19:00 78% 35 km
Di, 19.02. 13:00 60% 23 km
Di, 19.02. 7:00 93% 12 km
Di, 19.02. 1:00 90% 25 km
Mo, 18.02. 19:00 65% 27 km
Ortszeit Relative Feuchte Sichtweite
Mi, 20.02. 14:30 73% 20 km
Mi, 20.02. 14:20 73% -
Mi, 20.02. 14:10 75% -
Mi, 20.02. 14:00 77% 14 km
Mi, 20.02. 13:50 77% -
Mi, 20.02. 13:40 81% -
Mi, 20.02. 13:30 86% 9 km
Mi, 20.02. 13:00 92% 3.9 km
Mi, 20.02. 12:30 95% 0.7 km
Mi, 20.02. 12:00 96% 1.0 km
Mi, 20.02. 11:30 97% 0.4 km
Ortszeit Niederschlagsmenge Niederschlagsart
Mi, 20.02. 13:00 0.0 l/m2 in 6 Std. -
Mi, 20.02. 7:00 0.0 l/m2 in 12 Std. -
Mi, 20.02. 1:00 0.0 l/m2 in 6 Std. -
Di, 19.02. 19:00 0.2 l/m2 in 12 Std. Regen
Di, 19.02. 13:00 0.0 l/m2 in 6 Std. -
Di, 19.02. 7:00 0.0 l/m2 in 12 Std. -
Di, 19.02. 1:00 0.0 l/m2 in 6 Std. -
Mo, 18.02. 19:00 0.0 l/m2 in 12 Std. -
Ortszeit Niederschlagsmenge Niederschlagsart
Mi, 20.02. 14:30 0.0 l/m2 in 1 Std. -
Mi, 20.02. 14:20 keine Meldung -
Mi, 20.02. 14:10 keine Meldung -
Mi, 20.02. 14:00 0.0 l/m2 in 1 Std. -
Mi, 20.02. 13:50 keine Meldung -
Mi, 20.02. 13:40 keine Meldung -
Mi, 20.02. 13:30 0.0 l/m2 in 1 Std. -
Mi, 20.02. 13:00 0.0 l/m2 in 1 Std. -
Mi, 20.02. 12:30 0.0 l/m2 in 1 Std. -
Mi, 20.02. 12:00 0.0 l/m2 in 1 Std. -
Mi, 20.02. 11:30 0.0 l/m2 in 1 Std. -
Ortszeit Stärke Spitze Richtung
km/h Bft. km/h Grad Sektor
Mi, 20.02. 13:00 9 2 13 140° SO
Mi, 20.02. 7:00 4 1 7 160° S
Mi, 20.02. 1:00 4 1 18 320° NW
Di, 19.02. 19:00 11 2 22 270° W
Di, 19.02. 13:00 13 3 22 140° SO
Di, 19.02. 7:00 11 2 18 150° SO
Di, 19.02. 1:00 2 1 11 10° N
Mo, 18.02. 19:00 0 0 18 - -
Ortszeit Stärke Spitze Richtung
km/h Bft. km/h Grad Sektor
Mi, 20.02. 14:30 6 1 9 140° SO
Mi, 20.02. 14:20 6 1 - 140° SO
Mi, 20.02. 14:10 7 2 - 150° SO
Mi, 20.02. 14:00 4 1 14 140° SO
Mi, 20.02. 13:50 4 1 - 140° SO
Mi, 20.02. 13:40 4 1 - 150° SO
Mi, 20.02. 13:30 4 1 14 150° SO
Mi, 20.02. 13:00 9 2 13 140° SO
Mi, 20.02. 12:30 7 2 11 140° SO
Mi, 20.02. 12:00 7 2 11 140° SO
Mi, 20.02. 11:30 7 2 11 140° SO
Ortszeit Untergrenze Bedeckung Gattung
total tief tief mittel hoch
Mi, 20.02. 13:00 30 m 8/8 8/8 - - -
Mi, 20.02. 7:00 <30 m 8/8 0/8 - - -
Mi, 20.02. 1:00 - 0/8 0/8 - - -
Di, 19.02. 19:00 1080 m 8/8 8/8 - - -
Di, 19.02. 13:00 1500 m 7/8 5/8 - - -
Di, 19.02. 7:00 - 0/8 0/8 - - -
Di, 19.02. 1:00 - 0/8 0/8 - - -
Mo, 18.02. 19:00 - 0/8 0/8 - - -
Ortszeit Bedeckungsgrad in Achtel und Wolkenuntergrenze
Mi, 20.02. 14:30 -
Mi, 20.02. 14:20 -
Mi, 20.02. 14:10 -
Mi, 20.02. 14:00 2(3600m) 7(4800m) 7(5700m)
Mi, 20.02. 13:50 2(3600m) 7(4800m) 7(5700m)
Mi, 20.02. 13:40 3(3300m) 7(5100m) 7(9000m)
Mi, 20.02. 13:30 2(30m) 8(3300m) 7(10500m)
Mi, 20.02. 13:00 8(30m) 8(3600m)
Mi, 20.02. 12:30 8(30m)
Mi, 20.02. 12:00 8(30m)
Mi, 20.02. 11:30 8(<30m)
Ortszeit Luftdruck NN (hPa) Tendenz (hPa in 3 Std.)
Mi, 20.02. 13:00 1027 + 0,2
Mi, 20.02. 7:00 1026 + 0,8
Mi, 20.02. 1:00 1025 + 0,7
Di, 19.02. 19:00 1021 + 0,7
Di, 19.02. 13:00 1021 - 0,9
Di, 19.02. 7:00 1023 + 0,8
Di, 19.02. 1:00 1022 + 0,1
Mo, 18.02. 19:00 1021 - 0,6
Ortszeit Luftdruck NN (hPa) Tendenz (hPa in 3 Std.)
Mi, 20.02. 14:30 1026 - 0,4
Mi, 20.02. 14:20 1026 keine Meldung
Mi, 20.02. 14:10 1026 keine Meldung
Mi, 20.02. 14:00 1026 - 0,4
Mi, 20.02. 13:50 1026 keine Meldung
Mi, 20.02. 13:40 1026 keine Meldung
Mi, 20.02. 13:30 1027 0,0
Mi, 20.02. 13:00 1027 + 0,2
Mi, 20.02. 12:30 1027 + 0,8
Mi, 20.02. 12:00 1027 + 1,0
Mi, 20.02. 11:30 1027 + 1,3
Ortszeit Schneehöhe (cm)
Mi, 20.02. 13:00 0
Mi, 20.02. 7:00 0
Mi, 20.02. 1:00 0
Di, 19.02. 19:00 0
Di, 19.02. 13:00 0
Di, 19.02. 7:00 0
Di, 19.02. 1:00 0
Mo, 18.02. 19:00 0
Ortszeit Schneehöhe (cm)
Mi, 20.02. 14:30 0
Mi, 20.02. 14:20 0
Mi, 20.02. 14:10 0
Mi, 20.02. 14:00 0
Mi, 20.02. 13:50 0
Mi, 20.02. 13:40 0
Mi, 20.02. 13:30 0
Mi, 20.02. 13:00 0
Mi, 20.02. 12:30 0
Mi, 20.02. 12:00 0
Mi, 20.02. 11:30 0
Link zu dieser Seite / Seite empfehlen

Das Wetter in ...